Palmyra, ME (04965)

12:53 PM EDT on August 25, 2016 (GMT -0400)
Camp Benson | | Change Station

Elev 236 ft 44.85 °N, 69.28 °W | Updated 11 minutes ago

Mostly Cloudy
Mostly Cloudy
83.5 °F
Feels Like 86 °F
N
2.2
Wind Variable Wind from NNE

Today
High -- | Low -- °F
--% Chance of Precip.
Yesterday
High -- | Low -- °F
Precip. -- in
Pressure 29.95 in
Visibility 10.0 miles
Clouds Mostly Cloudy 15000 ft
Mostly Cloudy 25000 ft
Heat Index 86 °F
Dew Point 67 °F
Humidity 57%
Rainfall 0.00 in
Snow Depth Not available.
5:51 AM 7:26 PM
Last Quarter, 44% visible
METAR KBGR 251553Z 18009KT 10SM BKN150 BKN250 27/19 A2996 RMK AO2 SLP142 T02720189
Pressure 29.95 in
Visibility 10.0 miles
Clouds Mostly Cloudy 15000 ft
Mostly Cloudy 25000 ft
Heat Index 86 °F
Dew Point 67 °F
Humidity 57%
Rainfall 0.00 in
Snow Depth Not available.
5:51 AM 7:26 PM
Last Quarter, 44% visible
METAR KBGR 251553Z 18009KT 10SM BKN150 BKN250 27/19 A2996 RMK AO2 SLP142 T02720189

10-Day Weather Forecast

Almanac

Astronomy

Aug. 25, 2016 Rise Set
Actual Time
Civil Twilight
Nautical Twilight
Astronomical Twilight
Moon
Length of Visible Light
Length of Day
Tomorrow will be .
, % of the Moon is Illuminated

Today's Extremes

State Highs State Lows

Community

WunderPhotos

Upload Photos

1,934,869 photos uploaded!

WunderBlog® & News

Nearby

Air Quality

  Air Quality AQ Index Pollutant
Not available.

Snow Depth

Station Depth Elevation

Earthquake Activity

City Distance Mag. Time & Date
Minimum magnitude displayed is 2.5.

Coastal Water Temperatures

Place Temperature

Stations

Nearby Weather Stations

Station Location Temp. Windchill Dew Point Humidity Wind Precip. Elev Updated Type
                   

Watches & Warnings

There are currently no watches in effect.